Time;durP1;ratioP1;P1;durP2;ratioP2;P2;SDS_P1;SDS_P2;PMS_P1;PMS_P2;Temp;Humidity;BMP_temperature;BMP_pressure;BME280_temperature;BME280_humidity;BME280_pressure;Samples;Min_cycle;Max_cycle;Signal;HPM_P1;HPM_P2
2024/01/26 00:01:13;;;;;;;;;11.67;10.00;;;;;12.10;86.35;102028.72;5140278;27;45262;-84
2024/01/26 00:03:39;;;;;;;;;11.00;11.00;;;;;12.08;87.44;102035.91;5140243;27;45414;-82
2024/01/26 00:06:04;;;;;;;;;10.00;9.67;;;;;12.06;87.16;102042.25;5121693;27;45542;-83
2024/01/26 00:08:30;;;;;;;;;9.67;9.67;;;;;12.01;87.21;102033.56;5140277;27;45776;-85
2024/01/26 00:10:56;;;;;;;;;10.33;7.67;;;;;12.02;87.40;102040.63;5140858;27;45411;-83
2024/01/26 00:13:22;;;;;;;;;8.67;7.67;;;;;11.94;87.72;102032.06;5139460;27;45331;-82
2024/01/26 00:15:47;;;;;;;;;12.67;10.00;;;;;11.92;88.03;102044.59;5139594;27;45228;-83
2024/01/26 00:18:13;;;;;;;;;14.67;10.00;;;;;11.92;87.94;102047.25;5139184;27;45253;-84
2024/01/26 00:20:38;;;;;;;;;10.00;10.00;;;;;11.89;88.18;102050.03;5123880;27;45795;-85
2024/01/26 00:23:03;;;;;;;;;10.67;9.67;;;;;11.83;88.13;102043.13;5118999;27;45245;-83
2024/01/26 00:25:29;;;;;;;;;13.00;10.00;;;;;11.78;88.80;102021.97;5124322;27;45365;-82
2024/01/26 00:27:55;;;;;;;;;10.00;9.00;;;;;11.80;89.04;102033.47;5124612;27;45490;-82
2024/01/26 00:30:20;;;;;;;;;8.67;6.67;;;;;11.75;88.84;102014.09;5127070;27;45439;-81
2024/01/26 00:32:45;;;;;;;;;11.00;9.33;;;;;11.75;89.23;102011.44;5128863;27;45283;-82
2024/01/26 00:35:11;;;;;;;;;9.67;9.67;;;;;11.84;89.17;102009.34;5137631;27;45504;-81
2024/01/26 00:37:36;;;;;;;;;13.33;10.67;;;;;11.85;89.17;102003.09;5130928;27;45535;-84
2024/01/26 00:40:01;;;;;;;;;9.00;9.00;;;;;11.87;88.72;102011.91;5115113;27;45783;-82
2024/01/26 00:42:26;;;;;;;;;9.00;9.00;;;;;11.87;88.91;102019.91;5119384;27;45354;-80
2024/01/26 00:44:52;;;;;;;;;14.00;11.50;;;;;11.92;89.32;102023.25;5119359;27;45301;-86
2024/01/26 00:47:17;;;;;;;;;13.00;12.00;;;;;11.99;89.18;102040.78;5119648;27;45460;-84
2024/01/26 00:49:43;;;;;;;;;11.00;11.00;;;;;11.98;88.65;102018.56;5119479;27;45477;-84
2024/01/26 00:52:08;;;;;;;;;9.33;8.00;;;;;12.13;88.24;102027.75;5118763;27;45439;-82
2024/01/26 00:54:33;;;;;;;;;11.33;10.00;;;;;12.18;88.24;102025.75;5119389;27;45438;-84
2024/01/26 00:56:58;;;;;;;;;11.33;10.67;;;;;12.18;87.98;101992.91;5129587;27;64352;-83
2024/01/26 00:59:24;;;;;;;;;10.00;10.00;;;;;12.18;87.67;101988.44;5140225;27;45239;-86
2024/01/26 01:01:50;;;;;;;;;12.00;12.00;;;;;12.21;87.82;102004.28;5140581;27;45248;-85
2024/01/26 01:04:15;;;;;;;;;15.00;10.00;;;;;12.18;87.52;101999.09;5122235;27;45363;-85
2024/01/26 01:06:40;;;;;;;;;14.00;11.67;;;;;12.22;87.51;101994.50;5119133;27;45873;-82
2024/01/26 01:09:06;;;;;;;;;12.67;11.67;;;;;12.11;87.65;101976.28;5119402;27;45234;-85
2024/01/26 01:11:31;;;;;;;;;17.00;13.00;;;;;12.09;87.78;101976.31;5100530;27;45274;-85
2024/01/26 01:13:57;;;;;;;;;13.33;11.33;;;;;12.09;88.13;101975.47;5100900;27;45579;-84
2024/01/26 01:16:23;;;;;;;;;14.00;12.00;;;;;12.08;88.12;101982.59;5119884;27;45274;-81
2024/01/26 01:18:48;;;;;;;;;12.67;12.33;;;;;12.11;88.49;101986.97;5120626;27;51990;-82
2024/01/26 01:21:14;;;;;;;;;13.33;13.33;;;;;12.13;88.40;102003.75;5122682;27;45286;-82
2024/01/26 01:23:39;;;;;;;;;12.67;11.67;;;;;12.14;88.43;101997.50;5121052;27;45334;-82
2024/01/26 01:26:04;;;;;;;;;14.33;14.33;;;;;12.16;88.17;101990.28;5118953;27;45994;-84
2024/01/26 01:28:30;;;;;;;;;17.33;12.33;;;;;12.10;88.18;101977.19;5118012;27;45309;-82
2024/01/26 01:30:55;;;;;;;;;10.33;9.67;;;;;12.26;87.93;101997.00;5118647;27;45404;-82
2024/01/26 01:33:21;;;;;;;;;12.00;11.67;;;;;12.20;87.88;101978.56;5118200;27;45405;-82
2024/01/26 01:35:46;;;;;;;;;4.00;2.67;;;;;12.24;88.01;101993.53;5116679;27;47467;-84
2024/01/26 01:38:12;;;;;;;;;13.67;13.67;;;;;12.26;88.35;101991.66;5134699;27;61896;-82
2024/01/26 01:40:37;;;;;;;;;19.00;14.00;;;;;12.27;88.17;101987.19;5139062;27;45466;-83
2024/01/26 01:43:03;;;;;;;;;19.33;14.00;;;;;12.25;88.16;101984.59;5139422;27;45532;-85
2024/01/26 01:45:28;;;;;;;;;16.67;12.67;;;;;12.10;87.80;101945.19;5138905;27;46086;-85
2024/01/26 01:47:54;;;;;;;;;11.67;10.67;;;;;12.26;87.73;101974.78;5138610;27;45300;-86
2024/01/26 01:50:19;;;;;;;;;14.00;13.00;;;;;12.32;88.27;101995.88;5138866;27;45247;-84
2024/01/26 01:52:47;;;;;;;;;10.67;10.67;;;;;12.31;87.90;101989.66;5138952;27;45396;-84
2024/01/26 01:55:15;;;;;;;;;13.67;12.00;;;;;12.35;87.81;102001.94;5137478;27;46511;-83
2024/01/26 01:57:42;;;;;;;;;15.67;12.67;;;;;12.30;87.77;101989.72;5138681;27;45400;-85
2024/01/26 02:00:15;;;;;;;;;13.33;11.67;;;;;12.38;87.72;101996.50;5138552;27;45379;-84
2024/01/26 02:02:43;;;;;;;;;15.33;13.33;;;;;12.39;87.67;101984.03;5138927;27;45305;-83
2024/01/26 02:05:08;;;;;;;;;10.00;10.00;;;;;12.30;87.59;101963.91;5137858;27;45907;-83
2024/01/26 02:07:33;;;;;;;;;11.67;11.67;;;;;12.42;87.58;101991.91;5139021;27;45258;-86
2024/01/26 02:09:59;;;;;;;;;12.00;11.00;;;;;12.38;87.49;101974.28;5139234;27;45362;-85
2024/01/26 02:12:25;;;;;;;;;11.67;10.00;;;;;12.37;87.03;101968.09;5137958;27;45681;-84
2024/01/26 02:14:51;;;;;;;;;14.33;12.00;;;;;12.43;87.29;101979.41;5139734;27;45473;-84
2024/01/26 02:17:17;;;;;;;;;11.00;8.33;;;;;12.43;86.94;101979.41;5138858;27;45392;-82
2024/01/26 02:19:42;;;;;;;;;13.67;13.67;;;;;12.44;87.34;101983.81;5131222;27;45373;-82
2024/01/26 02:22:08;;;;;;;;;9.00;9.00;;;;;12.43;87.37;101966.06;5117630;27;45693;-82
2024/01/26 02:24:33;;;;;;;;;15.00;12.00;;;;;12.48;86.78;101970.28;5117601;27;45467;-82
2024/01/26 02:26:59;;;;;;;;;16.00;12.00;;;;;12.33;86.76;101934.44;5117450;27;45234;-84
2024/01/26 02:29:24;;;;;;;;;13.67;12.00;;;;;12.51;86.51;101967.50;5117691;27;45328;-81
2024/01/26 02:31:49;;;;;;;;;13.67;12.00;;;;;12.47;86.92;101954.34;5117914;27;45523;-83
2024/01/26 02:34:15;;;;;;;;;16.00;13.00;;;;;12.54;86.82;101961.16;5117840;27;46136;-83
2024/01/26 02:36:40;;;;;;;;;13.67;11.67;;;;;12.49;86.30;101958.66;5118657;27;50877;-83
2024/01/26 02:39:05;;;;;;;;;14.00;14.00;;;;;12.41;86.34;101939.47;5118012;27;56537;-82
2024/01/26 02:41:34;;;;;;;;;9.33;9.33;;;;;12.52;86.36;101969.25;5121500;27;45478;-85
2024/01/26 02:43:59;;;;;;;;;14.00;14.00;;;;;12.43;86.13;101955.41;5120938;27;46870;-81
2024/01/26 02:46:25;;;;;;;;;13.00;11.67;;;;;12.44;86.62;101951.81;5102775;27;45419;-82
2024/01/26 02:48:50;;;;;;;;;13.33;12.33;;;;;12.44;86.39;101947.34;5120653;27;51276;-83
2024/01/26 02:51:15;;;;;;;;;10.33;10.00;;;;;12.43;86.05;101947.41;5121363;27;45169;-81
2024/01/26 02:53:41;;;;;;;;;11.00;9.00;;;;;12.51;86.08;101947.97;5121044;27;46293;-83
2024/01/26 02:56:07;;;;;;;;;13.33;9.33;;;;;12.47;86.29;101935.66;5122497;27;45258;-81
2024/01/26 02:58:33;;;;;;;;;14.00;12.00;;;;;12.42;86.16;101921.66;5121434;27;45454;-84
2024/01/26 03:00:58;;;;;;;;;12.67;12.67;;;;;12.50;85.66;101939.09;5120704;27;45612;-81
2024/01/26 03:03:23;;;;;;;;;12.00;12.00;;;;;12.34;85.99;101914.84;5121084;27;45432;-85
2024/01/26 03:05:49;;;;;;;;;12.00;10.33;;;;;12.40;85.43;101924.41;5120322;27;52023;-84
2024/01/26 03:08:14;;;;;;;;;12.00;10.33;;;;;12.38;86.04;101928.94;5120848;27;45309;-83
2024/01/26 03:10:40;;;;;;;;;10.00;10.00;;;;;12.36;86.01;101920.09;5120756;27;45662;-82
2024/01/26 03:13:05;;;;;;;;;11.00;9.33;;;;;12.40;86.09;101940.41;5122863;27;45900;-84
2024/01/26 03:15:30;;;;;;;;;9.00;9.00;;;;;12.34;86.16;101924.63;5104407;27;66298;-83
2024/01/26 03:17:55;;;;;;;;;10.00;10.00;;;;;12.44;85.83;101946.47;5120265;27;67100;-82
2024/01/26 03:20:21;;;;;;;;;12.33;10.00;;;;;12.39;85.65;101930.66;5113589;27;49554;-82
2024/01/26 03:22:47;;;;;;;;;11.33;10.33;;;;;12.39;85.51;101936.00;5140798;27;50028;-84
2024/01/26 03:25:12;;;;;;;;;13.33;12.00;;;;;12.46;85.72;101939.25;5141083;27;45770;-83
2024/01/26 03:27:37;;;;;;;;;14.00;12.00;;;;;12.49;85.60;101939.13;5122792;27;45294;-82
2024/01/26 03:30:04;;;;;;;;;10.67;8.67;;;;;12.51;85.33;101937.28;5141243;27;48358;-85
2024/01/26 03:32:29;;;;;;;;;7.67;7.67;;;;;12.51;84.92;101929.28;5141038;27;46573;-85
2024/01/26 03:34:55;;;;;;;;;14.00;10.00;;;;;12.48;84.93;101921.38;5141887;27;45401;-85
2024/01/26 03:37:20;;;;;;;;;12.00;11.67;;;;;12.50;85.03;101935.53;5122240;27;45310;-85
2024/01/26 03:39:45;;;;;;;;;14.00;12.00;;;;;12.51;84.96;101932.81;5120620;27;45683;-85
2024/01/26 03:42:11;;;;;;;;;7.00;7.00;;;;;12.55;84.58;101941.53;5119651;27;66642;-85
2024/01/26 03:44:37;;;;;;;;;6.00;6.00;;;;;12.55;84.48;101936.22;5120768;27;45251;-82
2024/01/26 03:47:03;;;;;;;;;13.00;12.00;;;;;12.52;84.35;101928.34;5119823;27;45260;-82
2024/01/26 03:49:29;;;;;;;;;14.33;10.67;;;;;12.45;84.25;101911.72;5120268;27;45308;-83
2024/01/26 03:51:54;;;;;;;;;15.33;10.67;;;;;12.39;84.00;101896.84;5120101;27;45903;-85
2024/01/26 03:54:19;;;;;;;;;12.00;10.67;;;;;12.43;84.63;101907.38;5122438;27;45376;-82
2024/01/26 03:56:45;;;;;;;;;12.67;12.67;;;;;12.49;84.57;101920.44;5119378;27;55518;-83
2024/01/26 03:59:10;;;;;;;;;12.00;10.67;;;;;12.49;84.61;101923.13;5119659;27;45520;-83
2024/01/26 04:01:35;;;;;;;;;13.00;11.67;;;;;12.47;84.14;101925.84;5119042;27;63245;-83
2024/01/26 04:04:01;;;;;;;;;11.00;10.33;;;;;12.47;84.43;101930.31;5119602;27;45443;-84
2024/01/26 04:06:26;;;;;;;;;12.00;11.00;;;;;12.44;84.44;101923.31;5119592;27;45391;-82
2024/01/26 04:08:51;;;;;;;;;13.33;12.00;;;;;12.53;84.10;101924.75;5119696;27;45410;-82
2024/01/26 04:11:17;;;;;;;;;10.00;8.67;;;;;12.52;84.08;101928.34;5119332;27;59233;-83
2024/01/26 04:13:42;;;;;;;;;11.33;11.33;;;;;12.49;83.82;101920.44;5119768;27;45434;-83
2024/01/26 04:16:07;;;;;;;;;11.00;11.00;;;;;12.46;84.25;101917.91;5120080;27;52024;-83
2024/01/26 04:18:33;;;;;;;;;12.67;12.67;;;;;12.47;84.44;101919.66;5120200;27;45357;-83
2024/01/26 04:20:58;;;;;;;;;9.00;9.00;;;;;12.48;84.07;101921.38;5136153;27;45906;-84
2024/01/26 04:23:24;;;;;;;;;14.00;11.50;;;;;12.48;84.34;101921.38;5139915;27;45469;-82
2024/01/26 04:25:49;;;;;;;;;10.00;7.00;;;;;12.44;84.67;101920.66;5139090;27;61932;-82
2024/01/26 04:28:14;;;;;;;;;11.33;11.00;;;;;12.32;84.42;101890.03;5121075;27;48158;-81
2024/01/26 04:30:42;;;;;;;;;9.00;8.33;;;;;12.45;83.96;101910.84;5118572;27;63556;-82
2024/01/26 04:33:07;;;;;;;;;9.33;6.67;;;;;12.40;84.25;101921.72;5119660;27;45246;-81
2024/01/26 04:35:32;;;;;;;;;10.67;8.67;;;;;12.39;84.54;101928.00;5119114;27;45253;-82
2024/01/26 04:37:58;;;;;;;;;10.00;10.00;;;;;12.35;84.79;101910.38;5118976;27;45624;-85
2024/01/26 04:40:23;;;;;;;;;12.67;10.00;;;;;12.31;84.61;101909.63;5118911;27;46072;-82
2024/01/26 04:42:48;;;;;;;;;11.00;8.50;;;;;12.29;85.06;101902.63;5119282;27;45261;-83
2024/01/26 04:45:14;;;;;;;;;10.00;7.67;;;;;12.29;85.20;101916.84;5119730;27;45441;-84
2024/01/26 04:47:39;;;;;;;;;18.33;12.00;;;;;12.33;85.35;101917.56;5120903;27;45165;-83
2024/01/26 04:50:05;;;;;;;;;9.00;9.00;;;;;12.28;85.42;101915.09;5125685;27;45250;-84
2024/01/26 04:52:30;;;;;;;;;11.00;10.00;;;;;12.33;85.42;101915.78;5126721;27;45482;-83
2024/01/26 04:54:55;;;;;;;;;13.00;9.00;;;;;12.35;84.82;101915.69;5127351;27;45336;-81
2024/01/26 04:57:21;;;;;;;;;12.00;9.00;;;;;12.35;85.43;101921.91;5123327;27;45230;-82
2024/01/26 04:59:46;;;;;;;;;9.33;8.33;;;;;12.38;85.23;101931.59;5121622;27;53760;-80
2024/01/26 05:02:11;;;;;;;;;10.00;8.67;;;;;12.36;85.27;101915.63;5114378;27;46688;-83
2024/01/26 05:04:37;;;;;;;;;13.67;9.67;;;;;12.46;84.79;101931.25;5119082;27;45451;-83
2024/01/26 05:07:02;;;;;;;;;10.33;10.33;;;;;12.48;84.88;101932.06;5118097;27;50494;-84
2024/01/26 05:09:28;;;;;;;;;7.67;7.67;;;;;12.34;84.39;101898.81;5101274;27;46476;-83
2024/01/26 05:11:54;;;;;;;;;6.33;6.33;;;;;12.53;84.64;101935.41;5119842;27;45426;-82
2024/01/26 05:14:21;;;;;;;;;12.33;10.33;;;;;12.49;84.19;101926.66;5119255;27;45387;-83
2024/01/26 05:16:46;;;;;;;;;9.33;7.00;;;;;12.54;84.27;101921.13;5118597;27;45352;-83
2024/01/26 05:19:11;;;;;;;;;9.67;7.67;;;;;12.54;84.26;101916.66;5135436;27;46027;-82
2024/01/26 05:21:40;;;;;;;;;8.00;7.67;;;;;12.52;84.25;101907.88;5138975;27;45532;-84
2024/01/26 05:24:05;;;;;;;;;11.33;11.33;;;;;12.51;84.36;101897.25;5139320;27;45385;-84
2024/01/26 05:26:31;;;;;;;;;5.00;5.00;;;;;12.49;84.73;101880.41;5139201;27;45285;-82
2024/01/26 05:28:56;;;;;;;;;10.00;10.00;;;;;12.48;84.15;101889.38;5139904;27;45326;-82
2024/01/26 05:31:21;;;;;;;;;7.67;7.33;;;;;12.46;84.60;101886.75;5138994;27;55583;-80
2024/01/26 05:33:47;;;;;;;;;13.00;10.00;;;;;12.52;84.31;101891.00;5139275;27;45440;-80
2024/01/26 05:36:13;;;;;;;;;10.00;10.00;;;;;12.47;84.51;101885.81;5141418;27;45529;-81
2024/01/26 05:38:38;;;;;;;;;10.00;9.33;;;;;12.54;84.05;101889.13;5138282;27;61019;-86
2024/01/26 05:41:03;;;;;;;;;10.00;7.67;;;;;12.58;84.05;101896.03;5139510;27;45350;-83
2024/01/26 05:43:29;;;;;;;;;7.00;7.00;;;;;12.59;83.86;101900.44;5139295;27;45510;-82
2024/01/26 05:45:54;;;;;;;;;10.00;7.33;;;;;12.63;84.04;101920.72;5139102;27;45660;-84
2024/01/26 05:48:19;;;;;;;;;13.33;8.67;;;;;12.67;83.74;101914.34;5139390;27;51267;-84
2024/01/26 05:50:45;;;;;;;;;12.00;9.67;;;;;12.61;83.98;101910.09;5138884;27;50051;-81
2024/01/26 05:53:10;;;;;;;;;13.67;10.00;;;;;12.61;83.40;101901.25;5137616;27;45278;-83
2024/01/26 05:55:36;;;;;;;;;6.33;6.33;;;;;12.69;83.06;101915.13;5138820;27;45370;-84
2024/01/26 05:58:01;;;;;;;;;9.67;8.00;;;;;12.68;82.86;101914.25;5138477;27;45821;-85
2024/01/26 06:00:27;;;;;;;;;7.00;7.00;;;;;12.73;83.46;101916.72;5138132;27;45448;-84
2024/01/26 06:02:52;;;;;;;;;10.00;7.33;;;;;12.77;83.17;101923.69;5138687;27;45265;-83
2024/01/26 06:05:18;;;;;;;;;11.00;9.00;;;;;12.76;83.09;101932.63;5138957;27;45518;-84
2024/01/26 06:07:44;;;;;;;;;13.33;7.67;;;;;12.78;83.22;101920.06;5120991;27;46514;-82
2024/01/26 06:10:09;;;;;;;;;10.67;10.67;;;;;12.82;83.13;101927.00;5138410;27;45377;-84
2024/01/26 06:12:39;;;;;;;;;11.00;8.67;;;;;12.84;82.73;101941.16;5138577;27;45355;-82
2024/01/26 06:15:05;;;;;;;;;11.00;9.00;;;;;12.80;83.06;101928.88;5140351;27;45301;-82
2024/01/26 06:17:31;;;;;;;;;9.33;9.33;;;;;12.82;82.66;101932.34;5142266;27;45295;-83
2024/01/26 06:19:56;;;;;;;;;11.33;7.67;;;;;12.84;83.28;101945.63;5133662;27;63159;-85
2024/01/26 06:22:21;;;;;;;;;11.67;9.33;;;;;12.84;83.31;101938.47;5122280;27;45295;-82
2024/01/26 06:24:47;;;;;;;;;8.33;8.33;;;;;12.83;83.09;101934.06;5124305;27;45558;-84
2024/01/26 06:27:12;;;;;;;;;11.33;7.67;;;;;12.85;82.75;101937.53;5131009;27;45226;-81
2024/01/26 06:29:37;;;;;;;;;6.67;5.00;;;;;12.85;82.95;101932.19;5142031;27;57801;-81
2024/01/26 06:32:03;;;;;;;;;6.67;6.67;;;;;12.85;83.26;101936.66;5142793;27;45345;-79
2024/01/26 06:34:28;;;;;;;;;10.67;8.00;;;;;12.78;82.91;101925.41;5142435;27;45740;-81
2024/01/26 06:36:53;;;;;;;;;9.67;7.33;;;;;12.89;83.19;101944.50;5141764;27;45378;-81
2024/01/26 06:39:19;;;;;;;;;5.33;5.33;;;;;12.88;83.07;101945.41;5141416;27;45327;-82
2024/01/26 06:41:44;;;;;;;;;11.67;10.33;;;;;12.80;83.00;101936.88;5141941;27;45233;-82
2024/01/26 06:44:10;;;;;;;;;8.00;6.00;;;;;12.82;83.17;101943.03;5125449;27;45635;-82
2024/01/26 06:46:35;;;;;;;;;14.00;10.00;;;;;12.88;82.57;101948.06;5122004;27;47650;-85
2024/01/26 06:49:02;;;;;;;;;11.00;9.33;;;;;12.87;83.17;101957.03;5103109;27;45329;-83
2024/01/26 06:51:27;;;;;;;;;11.00;9.33;;;;;12.82;83.17;101943.03;5122406;27;45338;-82
2024/01/26 06:53:53;;;;;;;;;7.67;7.00;;;;;12.85;83.21;101955.34;5122968;27;45655;-82
2024/01/26 06:56:18;;;;;;;;;8.67;8.33;;;;;12.83;83.51;101946.56;5108037;27;46168;-82
2024/01/26 06:58:45;;;;;;;;;13.00;9.67;;;;;12.68;83.67;101929.41;5132107;27;45450;-83
2024/01/26 07:01:10;;;;;;;;;11.00;6.67;;;;;12.78;83.34;101957.44;5141388;27;45354;-81
2024/01/26 07:03:36;;;;;;;;;9.67;9.33;;;;;12.83;83.29;101955.44;5122608;27;45267;-83
2024/01/26 07:06:01;;;;;;;;;8.33;8.33;;;;;12.86;83.27;101960.63;5127683;27;66736;-85
2024/01/26 07:08:26;;;;;;;;;10.00;10.00;;;;;12.90;82.66;101961.38;5141172;27;45339;-83
2024/01/26 07:10:52;;;;;;;;;11.00;8.67;;;;;12.90;83.86;101961.38;5141015;27;45202;-82
2024/01/26 07:13:17;;;;;;;;;10.00;7.67;;;;;12.88;83.88;101964.09;5141666;27;45259;-85
2024/01/26 07:15:42;;;;;;;;;10.67;8.00;;;;;12.88;84.05;101964.09;5123394;27;45974;-86
2024/01/26 07:18:08;;;;;;;;;9.00;9.00;;;;;12.89;84.10;101968.53;5119083;27;45410;-86
2024/01/26 07:20:33;;;;;;;;;10.00;7.67;;;;;12.90;84.41;101956.03;5127439;27;45558;-85
2024/01/26 07:22:59;;;;;;;;;10.67;7.33;;;;;12.84;84.42;101951.81;5129957;27;45538;-87
2024/01/26 07:25:24;;;;;;;;;13.00;11.00;;;;;12.79;85.23;101955.63;5137571;27;45361;-89
2024/01/26 07:27:50;;;;;;;;;9.00;7.67;;;;;12.68;85.92;101942.75;5145098;27;45176;-90
2024/01/26 07:30:18;;;;;;;;;10.67;8.67;;;;;12.69;85.98;101958.69;5104119;27;45570;-87
2024/01/26 07:32:44;;;;;;;;;7.33;7.00;;;;;12.72;87.35;101965.69;5122185;27;45719;-86
2024/01/26 07:35:09;;;;;;;;;8.00;8.00;;;;;12.73;87.54;101975.44;5122031;27;45571;-88
2024/01/26 07:37:35;;;;;;;;;11.00;7.00;;;;;12.80;87.88;101998.28;5103005;27;45425;-88
2024/01/26 07:40:04;;;;;;;;;11.67;9.67;;;;;12.64;87.76;101975.84;5123410;27;45466;-86
2024/01/26 07:42:29;;;;;;;;;10.33;10.33;;;;;12.45;88.36;101929.53;5123941;27;45420;-87
2024/01/26 07:44:55;;;;;;;;;10.00;10.00;;;;;12.74;88.67;102000.34;5104096;27;47865;-86
2024/01/26 07:47:20;;;;;;;;;7.67;6.67;;;;;12.73;88.43;101988.78;5121514;27;45325;-86
2024/01/26 07:49:48;;;;;;;;;7.67;7.67;;;;;12.44;89.00;101957.13;5120422;27;45260;-87
2024/01/26 07:52:13;;;;;;;;;12.33;11.00;;;;;12.47;90.19;101971.22;5120999;27;45515;-86
2024/01/26 07:54:38;;;;;;;;;7.33;5.33;;;;;12.56;89.91;101984.19;5118017;27;47894;-87
2024/01/26 07:57:04;;;;;;;;;10.00;9.00;;;;;12.46;90.21;101966.81;5121390;27;45377;-86
2024/01/26 07:59:29;;;;;;;;;10.67;7.00;;;;;12.64;90.73;102003.41;5123680;27;45500;-87
2024/01/26 08:01:55;;;;;;;;;10.33;7.33;;;;;12.43;90.11;101966.06;5122971;27;45296;-87
2024/01/26 08:04:20;;;;;;;;;6.00;6.00;;;;;12.58;90.41;101997.44;5120815;27;45528;-87
2024/01/26 08:06:46;;;;;;;;;9.33;6.00;;;;;12.40;91.01;101975.94;5101956;27;45405;-87
2024/01/26 08:09:12;;;;;;;;;14.00;5.67;;;;;12.59;91.50;102000.06;5121116;27;45313;-87
2024/01/26 08:11:37;;;;;;;;;6.00;6.00;;;;;12.57;91.15;101999.25;5121921;27;45559;-88
2024/01/26 08:14:03;;;;;;;;;7.00;7.00;;;;;12.48;90.81;101980.09;5142463;27;45534;-88
2024/01/26 08:16:28;;;;;;;;;11.00;5.67;;;;;12.76;90.87;102036.72;5143131;27;45258;-85
2024/01/26 08:18:54;;;;;;;;;8.33;6.00;;;;;12.75;90.17;102032.31;5140024;27;44734;-89
2024/01/26 08:21:20;;;;;;;;;7.00;5.00;;;;;12.85;90.26;102044.34;5147273;27;45168;-87
2024/01/26 08:23:46;;;;;;;;;8.67;6.33;;;;;12.89;90.45;102040.63;5142199;27;45435;-86
2024/01/26 08:26:12;;;;;;;;;5.00;5.00;;;;;12.83;89.77;102035.53;5142183;27;45333;-85
2024/01/26 08:28:37;;;;;;;;;5.00;5.00;;;;;12.99;89.39;102060.63;5141621;27;45511;-85
2024/01/26 08:31:03;;;;;;;;;7.00;5.00;;;;;12.97;89.46;102062.50;5142576;27;45444;-87
2024/01/26 08:33:28;;;;;;;;;5.33;5.33;;;;;12.90;90.31;102053.03;5147319;27;45287;-87
2024/01/26 08:35:53;;;;;;;;;4.00;4.00;;;;;13.08;90.30;102071.88;5154577;27;45139;-86
2024/01/26 08:38:19;;;;;;;;;4.00;4.00;;;;;12.89;91.04;102048.63;5133705;27;49988;-88
2024/01/26 08:40:44;;;;;;;;;6.67;6.67;;;;;12.97;90.59;102059.84;5126118;27;45569;-88
2024/01/26 08:43:09;;;;;;;;;6.00;5.33;;;;;13.08;90.80;102072.75;5125633;27;45530;-88
2024/01/26 08:45:35;;;;;;;;;5.67;4.00;;;;;13.12;90.90;102077.00;5125265;27;45381;-87
2024/01/26 08:48:00;;;;;;;;;5.00;4.00;;;;;13.17;90.81;102085.72;5142216;27;53045;-87
2024/01/26 08:50:25;;;;;;;;;4.00;4.00;;;;;13.11;90.94;102066.38;5130166;27;45440;-87
2024/01/26 08:52:51;;;;;;;;;6.00;6.00;;;;;13.15;90.59;102068.88;5148723;27;45403;-88
2024/01/26 08:55:17;;;;;;;;;4.67;4.33;;;;;13.03;90.94;102050.72;5131037;27;44736;-86
2024/01/26 08:57:45;;;;;;;;;3.00;3.00;;;;;13.22;91.34;102098.88;5120258;27;45234;-87
2024/01/26 09:00:12;;;;;;;;;5.33;5.33;;;;;13.23;91.89;102095.28;5138996;27;45355;-89
2024/01/26 09:02:38;;;;;;;;;6.00;6.00;;;;;13.09;92.36;102062.91;5121152;27;47183;-86
2024/01/26 09:05:06;;;;;;;;;7.00;6.00;;;;;13.28;92.30;102085.25;5138747;27;45333;-85
2024/01/26 09:07:31;;;;;;;;;6.33;5.00;;;;;13.22;92.10;102085.53;5107888;27;45357;-85
2024/01/26 09:09:56;;;;;;;;;8.67;5.00;;;;;13.33;92.47;102104.63;5139512;27;45343;-85
2024/01/26 09:12:22;;;;;;;;;6.33;6.33;;;;;13.26;91.78;102081.78;5137444;27;47137;-86
2024/01/26 09:14:47;;;;;;;;;5.67;4.00;;;;;13.26;92.77;102081.78;5139576;27;45315;-86
2024/01/26 09:17:12;;;;;;;;;3.00;3.00;;;;;13.32;92.04;102086.00;5139569;27;45360;-87
2024/01/26 09:19:38;;;;;;;;;2.00;2.00;;;;;13.25;91.83;102072.03;5135920;27;45295;-88
2024/01/26 09:22:03;;;;;;;;;5.33;5.33;;;;;13.39;91.90;102107.03;5139205;27;46467;-87
2024/01/26 09:24:29;;;;;;;;;3.67;3.67;;;;;13.31;91.92;102090.47;5129063;27;45322;-86
2024/01/26 09:26:55;;;;;;;;;4.00;4.00;;;;;13.30;91.67;102088.75;5120921;27;45398;-86
2024/01/26 09:29:21;;;;;;;;;4.00;4.00;;;;;13.32;91.37;102110.91;5131277;27;45287;-86
2024/01/26 09:31:46;;;;;;;;;2.67;2.67;;;;;13.41;90.64;102123.88;5147995;27;45448;-89
2024/01/26 09:34:12;;;;;;;;;4.00;3.00;;;;;13.26;90.27;102104.03;5132550;27;45400;-90
2024/01/26 09:36:37;;;;;;;;;4.00;2.00;;;;;13.28;90.64;102112.88;5122572;27;45425;-86
2024/01/26 09:39:03;;;;;;;;;1.67;1.00;;;;;13.40;90.63;102142.63;5139901;27;45617;-87
2024/01/26 09:41:28;;;;;;;;;2.00;2.00;;;;;13.32;90.69;102142.97;5139504;27;46198;-85
2024/01/26 09:43:54;;;;;;;;;2.00;2.00;;;;;13.34;92.39;102149.13;5140124;27;45329;-87
2024/01/26 09:46:20;;;;;;;;;3.00;3.00;;;;;13.35;92.92;102155.34;5138190;27;45772;-86
2024/01/26 09:48:52;;;;;;;;;4.00;4.00;;;;;13.38;92.89;102171.22;5118688;27;45419;-86
2024/01/26 09:51:17;;;;;;;;;4.00;3.00;;;;;13.31;92.92;102167.09;5119294;27;45487;-88
2024/01/26 09:53:43;;;;;;;;;5.00;2.33;;;;;13.28;93.69;102170.75;5110094;27;45858;-86
2024/01/26 09:56:09;;;;;;;;;1.00;1.00;;;;;13.06;93.64;102169.91;5131363;27;45876;-86
2024/01/26 09:58:35;;;;;;;;;3.00;1.33;;;;;13.06;93.30;102217.97;5116623;27;45452;-85
2024/01/26 10:01:00;;;;;;;;;1.00;1.00;;;;;12.89;91.50;102229.31;5119701;27;48620;-86
2024/01/26 10:03:28;;;;;;;;;0.00;0.00;;;;;12.64;87.41;102243.63;5131926;27;45454;-85
2024/01/26 10:05:53;;;;;;;;;1.00;1.00;;;;;12.36;88.79;102200.22;5119038;27;45376;-86
2024/01/26 10:08:18;;;;;;;;;2.00;1.00;;;;;12.35;86.91;102204.69;5116920;27;45626;-87
2024/01/26 10:10:44;;;;;;;;;1.00;0.00;;;;;12.50;84.08;102248.63;5117717;27;46110;-85
2024/01/26 10:13:10;;;;;;;;;1.67;1.67;;;;;12.28;81.43;102231.69;5117998;27;45477;-89
2024/01/26 10:15:35;;;;;;;;;1.00;0.00;;;;;12.28;81.74;102234.34;5118006;27;45373;-89
2024/01/26 10:18:01;;;;;;;;;0.67;0.00;;;;;12.37;81.98;102244.69;5120786;27;45405;-86
2024/01/26 10:20:27;;;;;;;;;1.00;1.00;;;;;12.47;80.17;102266.53;5125942;27;46128;-89
2024/01/26 10:22:52;;;;;;;;;0.00;0.00;;;;;12.29;80.62;102226.28;5116610;27;45543;-84
2024/01/26 10:25:18;;;;;;;;;0.00;0.00;;;;;12.69;79.50;102273.69;5134894;27;45565;-82
2024/01/26 10:27:43;;;;;;;;;1.00;1.00;;;;;12.63;77.86;102238.34;5121719;27;45474;-84
2024/01/26 10:30:11;;;;;;;;;4.00;2.50;;;;;12.85;76.84;102263.28;5124096;27;46110;-84
2024/01/26 10:32:37;;;;;;;;;1.00;1.00;;;;;12.89;77.19;102270.25;5116553;27;45341;-82
2024/01/26 10:35:04;;;;;;;;;4.00;1.00;;;;;12.69;74.90;102273.69;5115928;27;45556;-85
2024/01/26 10:37:31;;;;;;;;;1.33;0.00;;;;;12.70;73.91;102286.09;5116449;27;45626;-85
2024/01/26 10:40:00;;;;;;;;;1.00;1.00;;;;;12.44;75.19;102272.00;5116793;27;46364;-84
2024/01/26 10:42:30;;;;;;;;;1.00;1.00;;;;;12.66;76.00;102302.31;5116590;27;45487;-82
2024/01/26 10:44:57;;;;;;;;;1.00;1.00;;;;;12.66;74.55;102305.84;5116679;27;45323;-86
2024/01/26 10:47:25;;;;;;;;;2.33;1.00;;;;;12.79;74.58;102298.25;5097694;27;45507;-85
2024/01/26 10:49:56;;;;;;;;;2.00;0.00;;;;;12.85;72.70;102303.31;5116650;27;46423;-85
2024/01/26 10:52:22;;;;;;;;;0.00;0.00;;;;;12.75;72.12;102304.59;5116469;27;45796;-86
2024/01/26 10:54:51;;;;;;;;;0.00;0.00;;;;;12.70;72.08;102317.25;5100758;27;45398;-85
2024/01/26 10:57:19;;;;;;;;;1.00;1.00;;;;;12.85;72.06;102316.69;5129824;27;45671;-82
2024/01/26 10:59:45;;;;;;;;;3.33;2.00;;;;;13.04;71.04;102311.53;5119358;27;45996;-86
2024/01/26 11:02:14;;;;;;;;;0.00;0.00;;;;;13.17;68.86;102327.94;5120124;27;45529;-88
2024/01/26 11:04:44;;;;;;;;;1.33;1.33;;;;;13.19;69.14;102312.75;5126917;27;45432;-88
2024/01/26 11:07:10;;;;;;;;;1.67;1.67;;;;;13.23;68.63;102338.41;5114043;27;45610;-87
2024/01/26 11:09:41;;;;;;;;;1.00;1.00;;;;;13.21;68.92;102329.56;5120916;27;46391;-88